sensor_id;sensor_type;location;lat;lon;timestamp;pressure;altitude;pressure_sealevel;temperature;humidity
46756;BME280;32506;52.826;-1.192;2023-02-18T00:00:37;101309.59;;;12.14;64.47
46756;BME280;32506;52.826;-1.192;2023-02-18T00:03:02;101305.47;;;12.11;64.25
46756;BME280;32506;52.826;-1.192;2023-02-18T00:05:28;101300.97;;;12.12;64.20
46756;BME280;32506;52.826;-1.192;2023-02-18T00:07:54;101307.13;;;12.12;64.19
46756;BME280;32506;52.826;-1.192;2023-02-18T00:10:19;101294.75;;;12.11;64.18
46756;BME280;32506;52.826;-1.192;2023-02-18T00:12:45;101287.78;;;12.10;64.56
46756;BME280;32506;52.826;-1.192;2023-02-18T00:15:11;101279.53;;;12.12;64.42
46756;BME280;32506;52.826;-1.192;2023-02-18T00:17:36;101285.09;;;12.10;64.60
46756;BME280;32506;52.826;-1.192;2023-02-18T00:20:02;101290.25;;;12.12;64.43
46756;BME280;32506;52.826;-1.192;2023-02-18T00:22:28;101280.53;;;12.11;64.68
46756;BME280;32506;52.826;-1.192;2023-02-18T00:24:53;101277.06;;;12.10;64.58
46756;BME280;32506;52.826;-1.192;2023-02-18T00:27:19;101274.38;;;12.10;64.56
46756;BME280;32506;52.826;-1.192;2023-02-18T00:29:44;101270.03;;;12.09;64.56
46756;BME280;32506;52.826;-1.192;2023-02-18T00:32:10;101267.34;;;12.09;64.67
46756;BME280;32506;52.826;-1.192;2023-02-18T00:34:35;101265.72;;;12.08;64.80
46756;BME280;32506;52.826;-1.192;2023-02-18T00:37:01;101278.88;;;12.09;64.64
46756;BME280;32506;52.826;-1.192;2023-02-18T00:39:26;101267.34;;;12.09;64.63
46756;BME280;32506;52.826;-1.192;2023-02-18T00:41:52;101264.91;;;12.07;64.79
46756;BME280;32506;52.826;-1.192;2023-02-18T00:44:17;101261.38;;;12.07;64.81
46756;BME280;32506;52.826;-1.192;2023-02-18T00:46:42;101252.53;;;12.06;65.03
46756;BME280;32506;52.826;-1.192;2023-02-18T00:49:08;101252.53;;;12.06;65.16
46756;BME280;32506;52.826;-1.192;2023-02-18T00:51:34;101241.00;;;12.06;64.86
46756;BME280;32506;52.826;-1.192;2023-02-18T00:54:00;101248.19;;;12.05;64.94
46756;BME280;32506;52.826;-1.192;2023-02-18T00:56:25;101229.44;;;12.05;65.21
46756;BME280;32506;52.826;-1.192;2023-02-18T00:58:51;101231.28;;;12.05;64.75
46756;BME280;32506;52.826;-1.192;2023-02-18T01:01:17;101220.59;;;12.05;64.81
46756;BME280;32506;52.826;-1.192;2023-02-18T01:03:43;101217.06;;;12.04;64.75
46756;BME280;32506;52.826;-1.192;2023-02-18T01:06:10;101212.75;;;12.03;64.75
46756;BME280;32506;52.826;-1.192;2023-02-18T01:08:36;101218.13;;;12.03;64.86
46756;BME280;32506;52.826;-1.192;2023-02-18T01:11:03;101221.81;;;12.02;64.93
46756;BME280;32506;52.826;-1.192;2023-02-18T01:13:29;101228.00;;;12.03;65.16
46756;BME280;32506;52.826;-1.192;2023-02-18T01:15:54;101224.72;;;12.01;64.82
46756;BME280;32506;52.826;-1.192;2023-02-18T01:18:20;101222.84;;;12.01;64.97
46756;BME280;32506;52.826;-1.192;2023-02-18T01:20:46;101224.72;;;12.01;64.91
46756;BME280;32506;52.826;-1.192;2023-02-18T01:23:12;101229.22;;;12.00;64.66
46756;BME280;32506;52.826;-1.192;2023-02-18T01:25:39;101225.72;;;12.00;65.05
46756;BME280;32506;52.826;-1.192;2023-02-18T01:28:07;101221.41;;;11.99;65.19
46756;BME280;32506;52.826;-1.192;2023-02-18T01:30:33;101214.19;;;11.99;65.12
46756;BME280;32506;52.826;-1.192;2023-02-18T01:32:59;101217.06;;;11.98;64.61
46756;BME280;32506;52.826;-1.192;2023-02-18T01:35:24;101216.25;;;11.97;64.57
46756;BME280;32506;52.826;-1.192;2023-02-18T01:37:51;101214.59;;;11.96;65.02
46756;BME280;32506;52.826;-1.192;2023-02-18T01:40:19;101218.31;;;11.95;64.64
46756;BME280;32506;52.826;-1.192;2023-02-18T01:42:48;101216.63;;;11.94;64.74
46756;BME280;32506;52.826;-1.192;2023-02-18T01:50:30;101224.88;;;11.92;64.68
46756;BME280;32506;52.826;-1.192;2023-02-18T01:52:58;101207.97;;;11.92;64.80
46756;BME280;32506;52.826;-1.192;2023-02-18T01:55:24;101195.59;;;11.91;64.79
46756;BME280;32506;52.826;-1.192;2023-02-18T01:57:49;101204.47;;;11.91;65.02
46756;BME280;32506;52.826;-1.192;2023-02-18T02:00:16;101192.13;;;11.90;64.60
46756;BME280;32506;52.826;-1.192;2023-02-18T02:02:46;101194.78;;;11.90;64.98
46756;BME280;32506;52.826;-1.192;2023-02-18T02:05:12;101201.81;;;11.91;64.98
46756;BME280;32506;52.826;-1.192;2023-02-18T02:07:40;101191.28;;;11.90;64.66
46756;BME280;32506;52.826;-1.192;2023-02-18T02:10:07;101199.34;;;11.90;64.67
46756;BME280;32506;52.826;-1.192;2023-02-18T02:15:41;101186.16;;;11.88;64.55
46756;BME280;32506;52.826;-1.192;2023-02-18T02:38:21;101148.25;;;11.78;64.22
46756;BME280;32506;52.826;-1.192;2023-02-18T02:41:16;101135.88;;;11.77;64.45
46756;BME280;32506;52.826;-1.192;2023-02-18T02:44:19;101126.19;;;11.76;64.37
46756;BME280;32506;52.826;-1.192;2023-02-18T02:46:47;101122.91;;;11.74;64.17
46756;BME280;32506;52.826;-1.192;2023-02-18T02:50:05;101122.91;;;11.74;64.15
46756;BME280;32506;52.826;-1.192;2023-02-18T02:52:09;101104.38;;;11.72;63.94
46756;BME280;32506;52.826;-1.192;2023-02-18T02:54:37;101121.25;;;11.73;64.16
46756;BME280;32506;52.826;-1.192;2023-02-18T02:59:51;101105.63;;;11.70;64.03
46756;BME280;32506;52.826;-1.192;2023-02-18T03:02:40;101104.78;;;11.69;64.19
46756;BME280;32506;52.826;-1.192;2023-02-18T03:11:03;101099.03;;;11.66;64.17
46756;BME280;32506;52.826;-1.192;2023-02-18T03:13:38;101079.44;;;11.65;64.13
46756;BME280;32506;52.826;-1.192;2023-02-18T03:18:59;101074.31;;;11.64;63.79
46756;BME280;32506;52.826;-1.192;2023-02-18T03:21:47;101077.41;;;11.61;63.76
46756;BME280;32506;52.826;-1.192;2023-02-18T03:24:27;101059.69;;;11.59;63.76
46756;BME280;32506;52.826;-1.192;2023-02-18T03:27:06;101058.03;;;11.58;63.43
46756;BME280;32506;52.826;-1.192;2023-02-18T03:29:33;101039.50;;;11.57;63.52
46756;BME280;32506;52.826;-1.192;2023-02-18T03:32:03;101058.47;;;11.55;63.41
46756;BME280;32506;52.826;-1.192;2023-02-18T03:34:33;101060.31;;;11.55;63.33
46756;BME280;32506;52.826;-1.192;2023-02-18T03:37:01;101051.66;;;11.53;63.29
46756;BME280;32506;52.826;-1.192;2023-02-18T03:39:29;101055.38;;;11.52;63.24
46756;BME280;32506;52.826;-1.192;2023-02-18T03:41:55;101053.91;;;11.49;63.11
46756;BME280;32506;52.826;-1.192;2023-02-18T03:44:23;101035.41;;;11.48;63.31
46756;BME280;32506;52.826;-1.192;2023-02-18T03:46:49;101048.19;;;11.46;63.32
46756;BME280;32506;52.826;-1.192;2023-02-18T03:49:15;101034.16;;;11.44;63.09
46756;BME280;32506;52.826;-1.192;2023-02-18T03:51:41;101035.19;;;11.42;63.44
46756;BME280;32506;52.826;-1.192;2023-02-18T03:54:07;101019.56;;;11.39;63.23
46756;BME280;32506;52.826;-1.192;2023-02-18T03:56:33;101014.19;;;11.39;63.04
46756;BME280;32506;52.826;-1.192;2023-02-18T03:58:59;101020.78;;;11.37;63.25
46756;BME280;32506;52.826;-1.192;2023-02-18T04:01:24;101011.09;;;11.36;63.16
46756;BME280;32506;52.826;-1.192;2023-02-18T04:03:50;101014.00;;;11.34;62.91
46756;BME280;32506;52.826;-1.192;2023-02-18T04:06:16;101024.91;;;11.33;63.20
46756;BME280;32506;52.826;-1.192;2023-02-18T04:08:41;101018.75;;;11.32;63.05
46756;BME280;32506;52.826;-1.192;2023-02-18T04:11:07;101015.22;;;11.32;63.07
46756;BME280;32506;52.826;-1.192;2023-02-18T04:13:32;101018.13;;;11.30;62.99
46756;BME280;32506;52.826;-1.192;2023-02-18T04:15:58;101026.34;;;11.29;63.18
46756;BME280;32506;52.826;-1.192;2023-02-18T04:18:23;101030.06;;;11.28;62.95
46756;BME280;32506;52.826;-1.192;2023-02-18T04:20:48;101031.06;;;11.27;63.27
46756;BME280;32506;52.826;-1.192;2023-02-18T04:23:14;101030.47;;;11.24;63.11
46756;BME280;32506;52.826;-1.192;2023-02-18T04:25:40;101022.44;;;11.24;62.98
46756;BME280;32506;52.826;-1.192;2023-02-18T04:28:05;101040.38;;;11.24;63.24
46756;BME280;32506;52.826;-1.192;2023-02-18T04:30:31;101030.69;;;11.23;63.39
46756;BME280;32506;52.826;-1.192;2023-02-18T04:32:57;101026.16;;;11.23;63.45
46756;BME280;32506;52.826;-1.192;2023-02-18T04:35:22;101013.78;;;11.22;63.04
46756;BME280;32506;52.826;-1.192;2023-02-18T04:37:48;101004.75;;;11.23;63.42
46756;BME280;32506;52.826;-1.192;2023-02-18T04:40:13;101003.94;;;11.23;63.49
46756;BME280;32506;52.826;-1.192;2023-02-18T04:42:39;101015.44;;;11.23;63.64
46756;BME280;32506;52.826;-1.192;2023-02-18T04:45:04;101003.94;;;11.23;63.29
46756;BME280;32506;52.826;-1.192;2023-02-18T04:47:30;101007.63;;;11.22;63.62
46756;BME280;32506;52.826;-1.192;2023-02-18T04:49:55;101004.13;;;11.21;63.37
46756;BME280;32506;52.826;-1.192;2023-02-18T04:52:21;100998.16;;;11.19;63.44
46756;BME280;32506;52.826;-1.192;2023-02-18T04:54:46;100992.59;;;11.21;63.36
46756;BME280;32506;52.826;-1.192;2023-02-18T04:57:12;100986.66;;;11.19;63.48
46756;BME280;32506;52.826;-1.192;2023-02-18T04:59:37;100985.00;;;11.18;63.53
46756;BME280;32506;52.826;-1.192;2023-02-18T05:02:03;100989.53;;;11.17;63.58
46756;BME280;32506;52.826;-1.192;2023-02-18T05:04:29;100989.72;;;11.16;63.71
46756;BME280;32506;52.826;-1.192;2023-02-18T05:06:54;100982.75;;;11.15;63.98
46756;BME280;32506;52.826;-1.192;2023-02-18T05:09:20;100990.78;;;11.15;63.99
46756;BME280;32506;52.826;-1.192;2023-02-18T05:11:45;100975.75;;;11.14;64.01
46756;BME280;32506;52.826;-1.192;2023-02-18T05:14:12;100987.47;;;11.13;63.79
46756;BME280;32506;52.826;-1.192;2023-02-18T05:16:37;100979.44;;;11.13;64.19
46756;BME280;32506;52.826;-1.192;2023-02-18T05:19:03;100985.59;;;11.13;64.03
46756;BME280;32506;52.826;-1.192;2023-02-18T05:21:28;100970.81;;;11.11;63.99
46756;BME280;32506;52.826;-1.192;2023-02-18T05:23:54;100966.28;;;11.11;64.43
46756;BME280;32506;52.826;-1.192;2023-02-18T05:26:19;100956.59;;;11.10;64.57
46756;BME280;32506;52.826;-1.192;2023-02-18T05:28:45;100953.91;;;11.10;64.26
46756;BME280;32506;52.826;-1.192;2023-02-18T05:31:10;100948.56;;;11.10;64.37
46756;BME280;32506;52.826;-1.192;2023-02-18T05:33:36;100961.34;;;11.08;64.30
46756;BME280;32506;52.826;-1.192;2023-02-18T05:36:01;100962.38;;;11.07;64.64
46756;BME280;32506;52.826;-1.192;2023-02-18T05:38:27;100961.34;;;11.08;64.49
46756;BME280;32506;52.826;-1.192;2023-02-18T05:40:54;100970.41;;;11.07;64.73
46756;BME280;32506;52.826;-1.192;2023-02-18T05:43:19;100976.75;;;11.06;64.66
46756;BME280;32506;52.826;-1.192;2023-02-18T05:45:45;100967.09;;;11.05;64.93
46756;BME280;32506;52.826;-1.192;2023-02-18T05:48:10;100975.13;;;11.05;64.74
46756;BME280;32506;52.826;-1.192;2023-02-18T05:50:36;100974.31;;;11.04;65.00
46756;BME280;32506;52.826;-1.192;2023-02-18T05:53:01;100969.97;;;11.03;64.88
46756;BME280;32506;52.826;-1.192;2023-02-18T05:55:27;100973.50;;;11.04;65.19
46756;BME280;32506;52.826;-1.192;2023-02-18T05:57:52;100958.69;;;11.01;65.18
46756;BME280;32506;52.826;-1.192;2023-02-18T06:00:18;100964.84;;;11.02;65.02
46756;BME280;32506;52.826;-1.192;2023-02-18T06:02:43;100961.13;;;11.03;65.08
46756;BME280;32506;52.826;-1.192;2023-02-18T06:05:09;100967.50;;;11.02;65.38
46756;BME280;32506;52.826;-1.192;2023-02-18T06:07:35;100957.84;;;11.01;65.32
46756;BME280;32506;52.826;-1.192;2023-02-18T06:10:01;100948.19;;;11.00;65.41
46756;BME280;32506;52.826;-1.192;2023-02-18T06:12:27;100952.47;;;11.01;65.29
46756;BME280;32506;52.826;-1.192;2023-02-18T06:14:53;100969.59;;;11.00;65.31
46756;BME280;32506;52.826;-1.192;2023-02-18T06:17:18;100965.03;;;11.00;65.40
46756;BME280;32506;52.826;-1.192;2023-02-18T06:19:44;100959.06;;;10.98;65.53
46756;BME280;32506;52.826;-1.192;2023-02-18T06:22:10;100959.06;;;10.98;65.38
46756;BME280;32506;52.826;-1.192;2023-02-18T06:24:36;100941.19;;;10.99;65.56
46756;BME280;32506;52.826;-1.192;2023-02-18T06:27:03;100948.38;;;10.98;65.58
46756;BME280;32506;52.826;-1.192;2023-02-18T06:29:29;100945.69;;;10.98;65.76
46756;BME280;32506;52.826;-1.192;2023-02-18T06:31:56;100940.34;;;10.98;65.70
46756;BME280;32506;52.826;-1.192;2023-02-18T06:34:22;100947.56;;;10.98;66.13
46756;BME280;32506;52.826;-1.192;2023-02-18T06:36:47;100960.13;;;10.97;66.10
46756;BME280;32506;52.826;-1.192;2023-02-18T06:39:13;100959.06;;;10.98;65.96
46756;BME280;32506;52.826;-1.192;2023-02-18T06:41:38;100967.28;;;10.97;66.05
46756;BME280;32506;52.826;-1.192;2023-02-18T06:44:04;100959.28;;;10.97;66.21
46756;BME280;32506;52.826;-1.192;2023-02-18T06:46:33;100957.44;;;10.97;66.24
46756;BME280;32506;52.826;-1.192;2023-02-18T06:48:58;100964.63;;;10.97;66.17
46756;BME280;32506;52.826;-1.192;2023-02-18T06:51:24;100949.59;;;10.96;66.49
46756;BME280;32506;52.826;-1.192;2023-02-18T06:53:50;100945.09;;;10.96;66.64
46756;BME280;32506;52.826;-1.192;2023-02-18T06:56:16;100958.47;;;10.96;66.65
46756;BME280;32506;52.826;-1.192;2023-02-18T06:58:41;100967.50;;;10.95;66.73
46756;BME280;32506;52.826;-1.192;2023-02-18T07:01:07;100964.03;;;10.95;66.64
46756;BME280;32506;52.826;-1.192;2023-02-18T07:03:32;100965.03;;;10.94;66.48
46756;BME280;32506;52.826;-1.192;2023-02-18T07:05:58;100966.69;;;10.95;66.78
46756;BME280;32506;52.826;-1.192;2023-02-18T07:08:24;100966.69;;;10.95;66.69
46756;BME280;32506;52.826;-1.192;2023-02-18T07:10:49;100970.19;;;10.95;66.74
46756;BME280;32506;52.826;-1.192;2023-02-18T07:13:15;100972.03;;;10.95;67.01
46756;BME280;32506;52.826;-1.192;2023-02-18T07:15:40;100981.09;;;10.94;66.61
46756;BME280;32506;52.826;-1.192;2023-02-18T07:18:05;100972.84;;;10.95;66.66
46756;BME280;32506;52.826;-1.192;2023-02-18T07:20:31;100987.25;;;10.94;67.02
46756;BME280;32506;52.826;-1.192;2023-02-18T07:22:57;100995.06;;;10.96;66.92
46756;BME280;32506;52.826;-1.192;2023-02-18T07:25:22;100982.75;;;10.95;66.91
46756;BME280;32506;52.826;-1.192;2023-02-18T07:27:48;100987.88;;;10.96;67.10
46756;BME280;32506;52.826;-1.192;2023-02-18T07:30:13;101005.75;;;10.96;66.66
46756;BME280;32506;52.826;-1.192;2023-02-18T07:32:39;101003.94;;;10.96;67.00
46756;BME280;32506;52.826;-1.192;2023-02-18T07:35:05;101020.78;;;10.97;66.60
46756;BME280;32506;52.826;-1.192;2023-02-18T07:37:31;101036.84;;;10.97;66.74
46756;BME280;32506;52.826;-1.192;2023-02-18T07:39:56;101041.16;;;10.98;66.86
46756;BME280;32506;52.826;-1.192;2023-02-18T07:42:22;101037.47;;;10.99;66.74
46756;BME280;32506;52.826;-1.192;2023-02-18T07:44:48;101036.63;;;10.98;66.91
46756;BME280;32506;52.826;-1.192;2023-02-18T07:47:15;101039.31;;;10.98;66.92
46756;BME280;32506;52.826;-1.192;2023-02-18T07:49:41;101051.66;;;10.99;66.52
46756;BME280;32506;52.826;-1.192;2023-02-18T07:52:07;101065.88;;;11.00;66.54
46756;BME280;32506;52.826;-1.192;2023-02-18T07:54:32;101065.66;;;11.01;66.60
46756;BME280;32506;52.826;-1.192;2023-02-18T07:56:58;101067.09;;;11.04;66.36
46756;BME280;32506;52.826;-1.192;2023-02-18T07:59:23;101085.00;;;11.03;66.28
46756;BME280;32506;52.826;-1.192;2023-02-18T08:01:49;101077.59;;;11.05;66.32
46756;BME280;32506;52.826;-1.192;2023-02-18T08:04:14;101075.72;;;11.06;66.03
46756;BME280;32506;52.826;-1.192;2023-02-18T08:06:42;101073.88;;;11.06;65.95
46756;BME280;32506;52.826;-1.192;2023-02-18T08:09:10;101081.72;;;11.08;65.94
46756;BME280;32506;52.826;-1.192;2023-02-18T08:11:36;101078.84;;;11.10;66.30
46756;BME280;32506;52.826;-1.192;2023-02-18T08:14:01;101086.84;;;11.10;65.89
46756;BME280;32506;52.826;-1.192;2023-02-18T08:16:27;101097.34;;;11.11;65.85
46756;BME280;32506;52.826;-1.192;2023-02-18T08:18:53;101107.03;;;11.12;65.79
46756;BME280;32506;52.826;-1.192;2023-02-18T08:21:21;101110.53;;;11.13;66.28
46756;BME280;32506;52.826;-1.192;2023-02-18T08:23:47;101108.47;;;11.15;66.14
46756;BME280;32506;52.826;-1.192;2023-02-18T08:26:13;101103.94;;;11.15;66.08
46756;BME280;32506;52.826;-1.192;2023-02-18T08:28:38;101106.41;;;11.17;65.64
46756;BME280;32506;52.826;-1.192;2023-02-18T08:31:04;101117.75;;;11.19;66.05
46756;BME280;32506;52.826;-1.192;2023-02-18T08:33:30;101115.88;;;11.19;65.98
46756;BME280;32506;52.826;-1.192;2023-02-18T08:35:56;101121.03;;;11.21;65.92
46756;BME280;32506;52.826;-1.192;2023-02-18T08:38:22;101125.34;;;11.22;66.18
46756;BME280;32506;52.826;-1.192;2023-02-18T08:40:48;101124.34;;;11.23;66.02
46756;BME280;32506;52.826;-1.192;2023-02-18T08:43:14;101133.16;;;11.23;66.05
46756;BME280;32506;52.826;-1.192;2023-02-18T08:45:41;101143.66;;;11.25;65.73
46756;BME280;32506;52.826;-1.192;2023-02-18T08:48:08;101139.16;;;11.25;65.61
46756;BME280;32506;52.826;-1.192;2023-02-18T08:50:34;101140.59;;;11.28;65.65
46756;BME280;32506;52.826;-1.192;2023-02-18T08:53:00;101140.41;;;11.30;65.64
46756;BME280;32506;52.826;-1.192;2023-02-18T08:55:28;101151.09;;;11.30;65.82
46756;BME280;32506;52.826;-1.192;2023-02-18T08:57:54;101153.56;;;11.31;65.74
46756;BME280;32506;52.826;-1.192;2023-02-18T09:00:20;101142.66;;;11.33;66.02
46756;BME280;32506;52.826;-1.192;2023-02-18T09:02:45;101150.47;;;11.34;66.14
46756;BME280;32506;52.826;-1.192;2023-02-18T09:05:12;101149.44;;;11.35;65.65
46756;BME280;32506;52.826;-1.192;2023-02-18T09:07:38;101144.91;;;11.36;66.00
46756;BME280;32506;52.826;-1.192;2023-02-18T09:10:04;101148.22;;;11.38;65.93
46756;BME280;32506;52.826;-1.192;2023-02-18T09:12:30;101147.19;;;11.39;65.64
46756;BME280;32506;52.826;-1.192;2023-02-18T09:14:56;101130.72;;;11.42;65.92
46756;BME280;32506;52.826;-1.192;2023-02-18T09:17:22;101144.75;;;11.44;66.03
46756;BME280;32506;52.826;-1.192;2023-02-18T09:19:47;101156.06;;;11.46;66.27
46756;BME280;32506;52.826;-1.192;2023-02-18T09:22:13;101158.53;;;11.48;66.15
46756;BME280;32506;52.826;-1.192;2023-02-18T09:24:40;101162.63;;;11.50;66.23
46756;BME280;32506;52.826;-1.192;2023-02-18T09:27:06;101151.50;;;11.53;66.23
46756;BME280;32506;52.826;-1.192;2023-02-18T09:29:32;101158.53;;;11.54;66.38
46756;BME280;32506;52.826;-1.192;2023-02-18T09:32:01;101155.44;;;11.57;66.08
46756;BME280;32506;52.826;-1.192;2023-02-18T09:34:28;101165.75;;;11.61;66.23
46756;BME280;32506;52.826;-1.192;2023-02-18T09:36:53;101170.09;;;11.62;66.36
46756;BME280;32506;52.826;-1.192;2023-02-18T09:39:19;101169.88;;;11.63;66.23
46756;BME280;32506;52.826;-1.192;2023-02-18T09:41:48;101175.81;;;11.65;66.28
46756;BME280;32506;52.826;-1.192;2023-02-18T09:44:26;101179.13;;;11.67;66.24
46756;BME280;32506;52.826;-1.192;2023-02-18T09:49:36;101185.53;;;11.73;66.74
46756;BME280;32506;52.826;-1.192;2023-02-18T09:52:10;101182.03;;;11.72;66.40
46756;BME280;32506;52.826;-1.192;2023-02-18T09:54:36;101184.50;;;11.74;66.29
46756;BME280;32506;52.826;-1.192;2023-02-18T09:57:02;101189.00;;;11.73;66.30
46756;BME280;32506;52.826;-1.192;2023-02-18T09:59:30;101193.13;;;11.76;66.27
46756;BME280;32506;52.826;-1.192;2023-02-18T10:01:56;101201.81;;;11.78;66.34
46756;BME280;32506;52.826;-1.192;2023-02-18T10:04:33;101209.41;;;11.81;66.18
46756;BME280;32506;52.826;-1.192;2023-02-18T10:07:01;101209.19;;;11.83;66.17
46756;BME280;32506;52.826;-1.192;2023-02-18T10:09:32;101209.63;;;11.86;66.33
46756;BME280;32506;52.826;-1.192;2023-02-18T10:12:19;101214.16;;;11.92;66.71
46756;BME280;32506;52.826;-1.192;2023-02-18T10:14:57;101217.28;;;11.96;66.77
46756;BME280;32506;52.826;-1.192;2023-02-18T10:17:25;101228.84;;;12.03;67.05
46756;BME280;32506;52.826;-1.192;2023-02-18T10:19:53;101227.97;;;12.09;67.43
46756;BME280;32506;52.826;-1.192;2023-02-18T10:22:21;101232.31;;;12.17;67.14
46756;BME280;32506;52.826;-1.192;2023-02-18T10:24:54;101232.53;;;12.22;67.62
46756;BME280;32506;52.826;-1.192;2023-02-18T10:27:30;101236.22;;;12.28;67.36
46756;BME280;32506;52.826;-1.192;2023-02-18T10:32:34;101228.97;;;12.35;67.38
46756;BME280;32506;52.826;-1.192;2023-02-18T10:35:14;101249.00;;;12.39;67.14
46756;BME280;32506;52.826;-1.192;2023-02-18T10:37:52;101234.16;;;12.44;67.16
46756;BME280;32506;52.826;-1.192;2023-02-18T10:51:42;101247.59;;;12.96;69.87
46756;BME280;32506;52.826;-1.192;2023-02-18T10:54:13;101247.72;;;13.14;70.23
46756;BME280;32506;52.826;-1.192;2023-02-18T10:59:11;101231.00;;;13.57;70.58
46756;BME280;32506;52.826;-1.192;2023-02-18T11:01:39;101225.66;;;13.83;70.81
46756;BME280;32506;52.826;-1.192;2023-02-18T11:04:17;101221.25;;;14.14;70.72
46756;BME280;32506;52.826;-1.192;2023-02-18T11:06:45;101215.16;;;14.43;70.37
46756;BME280;32506;52.826;-1.192;2023-02-18T11:09:25;101207.88;;;14.88;69.98
46756;BME280;32506;52.826;-1.192;2023-02-18T11:11:59;101219.69;;;15.36;69.02
46756;BME280;32506;52.826;-1.192;2023-02-18T11:14:40;101225.22;;;15.83;67.79
46756;BME280;32506;52.826;-1.192;2023-02-18T11:17:20;101217.28;;;16.36;66.87
46756;BME280;32506;52.826;-1.192;2023-02-18T11:20:00;101217.41;;;16.93;65.46
46756;BME280;32506;52.826;-1.192;2023-02-18T11:22:30;101221.66;;;17.47;63.88
46756;BME280;32506;52.826;-1.192;2023-02-18T11:24:59;101212.25;;;17.84;62.83
46756;BME280;32506;52.826;-1.192;2023-02-18T11:27:30;101207.69;;;18.01;61.92
46756;BME280;32506;52.826;-1.192;2023-02-18T11:30:00;101211.13;;;18.14;61.89
46756;BME280;32506;52.826;-1.192;2023-02-18T11:32:28;101210.16;;;18.42;60.77
46756;BME280;32506;52.826;-1.192;2023-02-18T11:34:54;101199.97;;;18.71;59.72
46756;BME280;32506;52.826;-1.192;2023-02-18T11:37:21;101204.84;;;18.91;59.43
46756;BME280;32506;52.826;-1.192;2023-02-18T11:39:49;101208.84;;;19.11;59.37
46756;BME280;32506;52.826;-1.192;2023-02-18T11:42:18;101213.03;;;19.24;59.41
46756;BME280;32506;52.826;-1.192;2023-02-18T11:44:59;101211.81;;;19.37;59.58
46756;BME280;32506;52.826;-1.192;2023-02-18T11:52:35;101223.19;;;19.39;60.43
46756;BME280;32506;52.826;-1.192;2023-02-18T11:57:29;101221.63;;;19.43;60.93
46756;BME280;32506;52.826;-1.192;2023-02-18T11:59:56;101224.63;;;19.47;61.25
46756;BME280;32506;52.826;-1.192;2023-02-18T12:02:32;101218.19;;;19.53;61.57
46756;BME280;32506;52.826;-1.192;2023-02-18T12:05:03;101219.06;;;19.58;61.81
46756;BME280;32506;52.826;-1.192;2023-02-18T12:07:51;101227.53;;;19.67;61.43
46756;BME280;32506;52.826;-1.192;2023-02-18T12:10:25;101218.63;;;19.72;61.53
46756;BME280;32506;52.826;-1.192;2023-02-18T12:13:06;101210.84;;;19.81;61.84
46756;BME280;32506;52.826;-1.192;2023-02-18T12:23:57;101218.69;;;20.15;60.94
46756;BME280;32506;52.826;-1.192;2023-02-18T12:26:29;101207.09;;;20.24;61.03
46756;BME280;32506;52.826;-1.192;2023-02-18T12:45:56;101204.63;;;20.23;60.98
46756;BME280;32506;52.826;-1.192;2023-02-18T12:48:32;101197.81;;;20.15;60.74
46756;BME280;32506;52.826;-1.192;2023-02-18T12:51:25;101199.41;;;20.11;60.59
46756;BME280;32506;52.826;-1.192;2023-02-18T12:59:33;101188.97;;;19.92;60.42
46756;BME280;32506;52.826;-1.192;2023-02-18T13:15:49;101202.75;;;19.53;57.83
46756;BME280;32506;52.826;-1.192;2023-02-18T13:18:21;101204.28;;;19.44;57.54
46756;BME280;32506;52.826;-1.192;2023-02-18T13:20:59;101211.81;;;19.37;57.11
46756;BME280;32506;52.826;-1.192;2023-02-18T13:23:30;101204.69;;;19.31;56.96
46756;BME280;32506;52.826;-1.192;2023-02-18T13:26:00;101204.91;;;19.24;56.96
46756;BME280;32506;52.826;-1.192;2023-02-18T13:28:55;101182.38;;;19.18;56.54
46756;BME280;32506;52.826;-1.192;2023-02-18T13:34:06;101190.91;;;19.05;57.20
46756;BME280;32506;52.826;-1.192;2023-02-18T13:39:09;101188.34;;;18.93;56.78
46756;BME280;32506;52.826;-1.192;2023-02-18T13:41:43;101184.97;;;18.86;56.64
46756;BME280;32506;52.826;-1.192;2023-02-18T13:46:56;101196.19;;;18.72;56.37
46756;BME280;32506;52.826;-1.192;2023-02-18T13:49:30;101189.91;;;18.67;56.18
46756;BME280;32506;52.826;-1.192;2023-02-18T13:51:57;101188.47;;;18.59;55.75
46756;BME280;32506;52.826;-1.192;2023-02-18T13:54:32;101178.88;;;18.51;55.97
46756;BME280;32506;52.826;-1.192;2023-02-18T13:59:42;101176.53;;;18.38;56.45
46756;BME280;32506;52.826;-1.192;2023-02-18T14:12:41;101178.31;;;18.10;55.70
46756;BME280;32506;52.826;-1.192;2023-02-18T14:17:47;101180.97;;;18.05;55.94
46756;BME280;32506;52.826;-1.192;2023-02-18T14:20:29;101182.03;;;18.04;55.24
46756;BME280;32506;52.826;-1.192;2023-02-18T14:22:56;101182.28;;;18.02;55.18
46756;BME280;32506;52.826;-1.192;2023-02-18T14:28:02;101151.72;;;18.02;55.04
46756;BME280;32506;52.826;-1.192;2023-02-18T14:30:37;101162.84;;;18.05;54.91
46756;BME280;32506;52.826;-1.192;2023-02-18T14:33:04;101156.06;;;18.03;55.02
46756;BME280;32506;52.826;-1.192;2023-02-18T14:35:45;101146.03;;;18.03;54.90
46756;BME280;32506;52.826;-1.192;2023-02-18T14:46:32;101132.31;;;18.05;54.07
46756;BME280;32506;52.826;-1.192;2023-02-18T14:51:34;101132.16;;;17.94;54.41
46756;BME280;32506;52.826;-1.192;2023-02-18T14:54:12;101141.78;;;17.90;53.97
46756;BME280;32506;52.826;-1.192;2023-02-18T14:56:56;101145.22;;;17.86;54.16
46756;BME280;32506;52.826;-1.192;2023-02-18T14:59:29;101150.81;;;17.79;54.06
46756;BME280;32506;52.826;-1.192;2023-02-18T15:01:56;101151.81;;;17.73;54.50
46756;BME280;32506;52.826;-1.192;2023-02-18T15:04:24;101153.38;;;17.69;54.47
46756;BME280;32506;52.826;-1.192;2023-02-18T15:07:01;101154.69;;;17.66;54.51
46756;BME280;32506;52.826;-1.192;2023-02-18T15:09:27;101154.34;;;17.63;54.95
46756;BME280;32506;52.826;-1.192;2023-02-18T15:12:00;101169.41;;;17.58;54.54
46756;BME280;32506;52.826;-1.192;2023-02-18T15:14:37;101164.16;;;17.52;55.03